sensor_id;sensor_type;location;lat;lon;timestamp;temperature;humidity
4433;DHT22;2229;48.708;9.706;2023-03-11T00:00:40;3.10;99.30
4433;DHT22;2229;48.708;9.706;2023-03-11T00:03:13;3.40;99.40
4433;DHT22;2229;48.708;9.706;2023-03-11T00:05:43;3.30;99.40
4433;DHT22;2229;48.708;9.706;2023-03-11T00:08:12;3.10;99.70
4433;DHT22;2229;48.708;9.706;2023-03-11T00:10:41;3.20;99.90
4433;DHT22;2229;48.708;9.706;2023-03-11T00:13:12;3.00;99.90
4433;DHT22;2229;48.708;9.706;2023-03-11T00:15:41;3.00;99.90
4433;DHT22;2229;48.708;9.706;2023-03-11T00:18:10;3.00;99.90
4433;DHT22;2229;48.708;9.706;2023-03-11T00:20:38;3.00;99.90
4433;DHT22;2229;48.708;9.706;2023-03-11T00:23:07;2.90;99.90
4433;DHT22;2229;48.708;9.706;2023-03-11T00:25:36;2.90;99.80
4433;DHT22;2229;48.708;9.706;2023-03-11T00:28:05;2.90;99.70
4433;DHT22;2229;48.708;9.706;2023-03-11T00:30:37;2.80;99.60
4433;DHT22;2229;48.708;9.706;2023-03-11T00:33:04;3.00;99.60
4433;DHT22;2229;48.708;9.706;2023-03-11T00:35:33;2.70;99.30
4433;DHT22;2229;48.708;9.706;2023-03-11T00:38:02;2.70;99.30
4433;DHT22;2229;48.708;9.706;2023-03-11T00:40:32;2.90;99.30
4433;DHT22;2229;48.708;9.706;2023-03-11T00:43:01;2.80;99.00
4433;DHT22;2229;48.708;9.706;2023-03-11T00:45:29;2.70;98.90
4433;DHT22;2229;48.708;9.706;2023-03-11T00:47:57;2.80;99.20
4433;DHT22;2229;48.708;9.706;2023-03-11T00:50:27;2.60;99.20
4433;DHT22;2229;48.708;9.706;2023-03-11T00:52:55;2.70;99.10
4433;DHT22;2229;48.708;9.706;2023-03-11T00:55:26;2.60;99.00
4433;DHT22;2229;48.708;9.706;2023-03-11T00:57:55;2.80;99.10
4433;DHT22;2229;48.708;9.706;2023-03-11T01:00:27;2.60;99.20
4433;DHT22;2229;48.708;9.706;2023-03-11T01:02:58;2.60;99.10
4433;DHT22;2229;48.708;9.706;2023-03-11T01:05:27;2.60;99.20
4433;DHT22;2229;48.708;9.706;2023-03-11T01:07:55;2.70;99.30
4433;DHT22;2229;48.708;9.706;2023-03-11T01:10:23;2.60;99.10
4433;DHT22;2229;48.708;9.706;2023-03-11T01:12:51;2.70;99.20
4433;DHT22;2229;48.708;9.706;2023-03-11T01:15:20;2.90;99.30
4433;DHT22;2229;48.708;9.706;2023-03-11T01:17:48;2.90;99.50
4433;DHT22;2229;48.708;9.706;2023-03-11T01:20:17;2.80;99.10
4433;DHT22;2229;48.708;9.706;2023-03-11T01:22:45;2.70;99.10
4433;DHT22;2229;48.708;9.706;2023-03-11T01:25:16;3.10;99.20
4433;DHT22;2229;48.708;9.706;2023-03-11T01:27:48;2.90;99.60
4433;DHT22;2229;48.708;9.706;2023-03-11T01:30:17;2.70;98.80
4433;DHT22;2229;48.708;9.706;2023-03-11T01:32:45;2.60;99.70
4433;DHT22;2229;48.708;9.706;2023-03-11T01:35:22;2.80;99.90
4433;DHT22;2229;48.708;9.706;2023-03-11T01:37:50;2.70;99.90
4433;DHT22;2229;48.708;9.706;2023-03-11T01:40:23;2.80;99.90
4433;DHT22;2229;48.708;9.706;2023-03-11T01:42:52;2.70;99.80
4433;DHT22;2229;48.708;9.706;2023-03-11T01:45:34;2.60;99.70
4433;DHT22;2229;48.708;9.706;2023-03-11T01:48:16;2.90;99.90
4433;DHT22;2229;48.708;9.706;2023-03-11T01:50:47;2.80;99.50
4433;DHT22;2229;48.708;9.706;2023-03-11T01:53:16;2.50;99.20
4433;DHT22;2229;48.708;9.706;2023-03-11T01:55:45;2.50;99.20
4433;DHT22;2229;48.708;9.706;2023-03-11T01:58:17;2.50;99.30
4433;DHT22;2229;48.708;9.706;2023-03-11T02:00:47;2.70;99.40
4433;DHT22;2229;48.708;9.706;2023-03-11T02:03:17;2.70;98.80
4433;DHT22;2229;48.708;9.706;2023-03-11T02:05:51;2.70;99.20
4433;DHT22;2229;48.708;9.706;2023-03-11T02:08:20;2.90;99.30
4433;DHT22;2229;48.708;9.706;2023-03-11T02:10:48;2.70;99.20
4433;DHT22;2229;48.708;9.706;2023-03-11T02:13:20;2.80;99.10
4433;DHT22;2229;48.708;9.706;2023-03-11T02:15:47;2.60;99.30
4433;DHT22;2229;48.708;9.706;2023-03-11T02:18:16;2.70;99.50
4433;DHT22;2229;48.708;9.706;2023-03-11T02:20:49;2.40;99.30
4433;DHT22;2229;48.708;9.706;2023-03-11T02:23:23;2.50;99.40
4433;DHT22;2229;48.708;9.706;2023-03-11T02:25:55;2.40;99.20
4433;DHT22;2229;48.708;9.706;2023-03-11T02:28:26;2.40;99.40
4433;DHT22;2229;48.708;9.706;2023-03-11T02:30:55;2.40;99.50
4433;DHT22;2229;48.708;9.706;2023-03-11T02:33:27;2.50;99.50
4433;DHT22;2229;48.708;9.706;2023-03-11T02:35:57;2.30;99.40
4433;DHT22;2229;48.708;9.706;2023-03-11T02:38:25;2.20;99.40
4433;DHT22;2229;48.708;9.706;2023-03-11T02:40:54;2.30;99.70
4433;DHT22;2229;48.708;9.706;2023-03-11T02:43:41;2.00;99.60
4433;DHT22;2229;48.708;9.706;2023-03-11T02:46:12;1.50;99.80
4433;DHT22;2229;48.708;9.706;2023-03-11T02:48:40;2.10;99.90
4433;DHT22;2229;48.708;9.706;2023-03-11T02:51:08;2.10;99.90
4433;DHT22;2229;48.708;9.706;2023-03-11T02:53:44;1.90;99.90
4433;DHT22;2229;48.708;9.706;2023-03-11T02:56:13;2.00;99.90
4433;DHT22;2229;48.708;9.706;2023-03-11T02:58:46;2.00;99.90
4433;DHT22;2229;48.708;9.706;2023-03-11T03:01:14;2.00;99.90
4433;DHT22;2229;48.708;9.706;2023-03-11T03:03:48;1.80;99.90
4433;DHT22;2229;48.708;9.706;2023-03-11T03:06:19;1.70;99.90
4433;DHT22;2229;48.708;9.706;2023-03-11T03:08:57;1.80;99.90
4433;DHT22;2229;48.708;9.706;2023-03-11T03:11:25;1.70;99.90
4433;DHT22;2229;48.708;9.706;2023-03-11T03:13:53;1.70;99.90
4433;DHT22;2229;48.708;9.706;2023-03-11T03:16:28;1.40;99.90
4433;DHT22;2229;48.708;9.706;2023-03-11T03:18:55;1.60;99.90
4433;DHT22;2229;48.708;9.706;2023-03-11T03:21:24;1.60;99.90
4433;DHT22;2229;48.708;9.706;2023-03-11T03:23:52;1.50;99.90
4433;DHT22;2229;48.708;9.706;2023-03-11T03:26:20;1.50;99.90
4433;DHT22;2229;48.708;9.706;2023-03-11T03:28:54;1.50;99.90
4433;DHT22;2229;48.708;9.706;2023-03-11T03:31:22;1.50;99.90
4433;DHT22;2229;48.708;9.706;2023-03-11T03:33:52;1.50;99.90
4433;DHT22;2229;48.708;9.706;2023-03-11T03:36:19;1.70;99.90
4433;DHT22;2229;48.708;9.706;2023-03-11T03:38:53;1.50;99.90
4433;DHT22;2229;48.708;9.706;2023-03-11T03:41:22;1.60;99.90
4433;DHT22;2229;48.708;9.706;2023-03-11T03:43:50;1.30;99.90
4433;DHT22;2229;48.708;9.706;2023-03-11T03:46:20;1.30;99.90
4433;DHT22;2229;48.708;9.706;2023-03-11T03:48:49;1.90;99.90
4433;DHT22;2229;48.708;9.706;2023-03-11T03:51:17;1.40;99.90
4433;DHT22;2229;48.708;9.706;2023-03-11T03:53:58;1.60;99.90
4433;DHT22;2229;48.708;9.706;2023-03-11T03:56:27;1.30;99.90
4433;DHT22;2229;48.708;9.706;2023-03-11T03:58:54;1.50;99.90
4433;DHT22;2229;48.708;9.706;2023-03-11T04:01:26;1.30;99.90
4433;DHT22;2229;48.708;9.706;2023-03-11T04:03:55;1.40;99.90
4433;DHT22;2229;48.708;9.706;2023-03-11T04:06:24;1.50;99.90
4433;DHT22;2229;48.708;9.706;2023-03-11T04:09:00;1.60;99.90
4433;DHT22;2229;48.708;9.706;2023-03-11T04:11:31;1.20;99.90
4433;DHT22;2229;48.708;9.706;2023-03-11T04:14:04;1.40;99.90
4433;DHT22;2229;48.708;9.706;2023-03-11T04:16:38;1.40;99.90
4433;DHT22;2229;48.708;9.706;2023-03-11T04:19:10;1.30;99.90
4433;DHT22;2229;48.708;9.706;2023-03-11T04:21:38;1.40;99.90
4433;DHT22;2229;48.708;9.706;2023-03-11T04:24:05;1.30;99.90
4433;DHT22;2229;48.708;9.706;2023-03-11T04:26:35;1.30;99.90
4433;DHT22;2229;48.708;9.706;2023-03-11T04:29:05;1.20;99.90
4433;DHT22;2229;48.708;9.706;2023-03-11T04:31:40;1.30;99.90
4433;DHT22;2229;48.708;9.706;2023-03-11T04:34:08;1.30;99.90
4433;DHT22;2229;48.708;9.706;2023-03-11T04:36:37;1.40;99.90
4433;DHT22;2229;48.708;9.706;2023-03-11T04:39:06;1.10;99.90
4433;DHT22;2229;48.708;9.706;2023-03-11T04:41:42;1.70;99.90
4433;DHT22;2229;48.708;9.706;2023-03-11T04:44:14;1.30;99.90
4433;DHT22;2229;48.708;9.706;2023-03-11T04:46:53;1.30;99.90
4433;DHT22;2229;48.708;9.706;2023-03-11T04:49:28;1.10;99.90
4433;DHT22;2229;48.708;9.706;2023-03-11T04:51:56;1.30;99.90
4433;DHT22;2229;48.708;9.706;2023-03-11T04:54:26;1.00;99.90
4433;DHT22;2229;48.708;9.706;2023-03-11T04:56:53;1.30;99.90
4433;DHT22;2229;48.708;9.706;2023-03-11T04:59:23;1.10;99.90
4433;DHT22;2229;48.708;9.706;2023-03-11T05:01:53;1.00;99.90
4433;DHT22;2229;48.708;9.706;2023-03-11T05:04:20;1.00;99.90
4433;DHT22;2229;48.708;9.706;2023-03-11T05:06:48;1.10;99.90
4433;DHT22;2229;48.708;9.706;2023-03-11T05:09:17;0.90;99.90
4433;DHT22;2229;48.708;9.706;2023-03-11T05:11:44;1.00;99.90
4433;DHT22;2229;48.708;9.706;2023-03-11T05:14:13;0.90;99.90
4433;DHT22;2229;48.708;9.706;2023-03-11T05:16:40;1.10;99.90
4433;DHT22;2229;48.708;9.706;2023-03-11T05:19:10;1.00;99.90
4433;DHT22;2229;48.708;9.706;2023-03-11T05:21:52;1.00;99.90
4433;DHT22;2229;48.708;9.706;2023-03-11T05:24:20;0.90;99.90
4433;DHT22;2229;48.708;9.706;2023-03-11T05:26:47;0.90;99.90
4433;DHT22;2229;48.708;9.706;2023-03-11T05:29:33;1.00;99.90
4433;DHT22;2229;48.708;9.706;2023-03-11T05:32:01;0.90;99.90
4433;DHT22;2229;48.708;9.706;2023-03-11T05:34:30;0.60;99.90
4433;DHT22;2229;48.708;9.706;2023-03-11T05:36:58;0.80;99.90
4433;DHT22;2229;48.708;9.706;2023-03-11T05:39:27;0.80;99.90
4433;DHT22;2229;48.708;9.706;2023-03-11T05:41:55;0.80;99.90
4433;DHT22;2229;48.708;9.706;2023-03-11T05:44:23;0.80;99.90
4433;DHT22;2229;48.708;9.706;2023-03-11T05:46:52;0.80;99.90
4433;DHT22;2229;48.708;9.706;2023-03-11T05:49:21;0.90;99.90
4433;DHT22;2229;48.708;9.706;2023-03-11T05:51:57;0.80;99.90
4433;DHT22;2229;48.708;9.706;2023-03-11T05:54:28;0.90;99.90
4433;DHT22;2229;48.708;9.706;2023-03-11T05:56:57;0.80;99.90
4433;DHT22;2229;48.708;9.706;2023-03-11T05:59:30;0.80;99.90
4433;DHT22;2229;48.708;9.706;2023-03-11T06:02:03;0.90;99.90
4433;DHT22;2229;48.708;9.706;2023-03-11T06:04:35;1.30;99.90
4433;DHT22;2229;48.708;9.706;2023-03-11T06:07:10;0.80;99.90
4433;DHT22;2229;48.708;9.706;2023-03-11T06:09:42;0.70;99.90
4433;DHT22;2229;48.708;9.706;2023-03-11T06:12:16;0.40;99.90
4433;DHT22;2229;48.708;9.706;2023-03-11T06:14:55;0.80;99.90
4433;DHT22;2229;48.708;9.706;2023-03-11T06:17:24;0.70;99.90
4433;DHT22;2229;48.708;9.706;2023-03-11T06:19:51;0.80;99.90
4433;DHT22;2229;48.708;9.706;2023-03-11T06:22:21;1.00;99.90
4433;DHT22;2229;48.708;9.706;2023-03-11T06:24:58;0.90;99.90
4433;DHT22;2229;48.708;9.706;2023-03-11T06:27:27;1.00;99.90
4433;DHT22;2229;48.708;9.706;2023-03-11T06:29:54;1.00;99.90
4433;DHT22;2229;48.708;9.706;2023-03-11T06:32:31;1.60;99.90
4433;DHT22;2229;48.708;9.706;2023-03-11T06:34:59;1.00;99.90
4433;DHT22;2229;48.708;9.706;2023-03-11T06:37:29;1.30;99.90
4433;DHT22;2229;48.708;9.706;2023-03-11T06:40:17;1.10;99.90
4433;DHT22;2229;48.708;9.706;2023-03-11T06:42:49;1.20;99.90
4433;DHT22;2229;48.708;9.706;2023-03-11T06:45:19;1.20;99.90
4433;DHT22;2229;48.708;9.706;2023-03-11T06:47:48;1.50;99.90
4433;DHT22;2229;48.708;9.706;2023-03-11T06:50:16;1.40;99.90
4433;DHT22;2229;48.708;9.706;2023-03-11T06:52:46;1.50;99.90
4433;DHT22;2229;48.708;9.706;2023-03-11T06:55:18;1.60;99.90
4433;DHT22;2229;48.708;9.706;2023-03-11T06:57:48;1.40;99.90
4433;DHT22;2229;48.708;9.706;2023-03-11T07:00:16;1.50;99.90
4433;DHT22;2229;48.708;9.706;2023-03-11T07:02:51;1.60;99.90
4433;DHT22;2229;48.708;9.706;2023-03-11T07:05:19;1.60;99.90
4433;DHT22;2229;48.708;9.706;2023-03-11T07:07:52;1.70;99.90
4433;DHT22;2229;48.708;9.706;2023-03-11T07:10:20;1.80;99.90
4433;DHT22;2229;48.708;9.706;2023-03-11T07:12:47;1.80;99.90
4433;DHT22;2229;48.708;9.706;2023-03-11T07:15:14;1.80;99.90
4433;DHT22;2229;48.708;9.706;2023-03-11T07:17:42;1.70;99.90
4433;DHT22;2229;48.708;9.706;2023-03-11T07:20:10;1.80;99.90
4433;DHT22;2229;48.708;9.706;2023-03-11T07:22:38;1.80;99.90
4433;DHT22;2229;48.708;9.706;2023-03-11T07:25:07;1.60;99.90
4433;DHT22;2229;48.708;9.706;2023-03-11T07:27:35;1.80;99.90
4433;DHT22;2229;48.708;9.706;2023-03-11T07:30:03;2.00;99.90
4433;DHT22;2229;48.708;9.706;2023-03-11T07:32:32;2.10;99.90
4433;DHT22;2229;48.708;9.706;2023-03-11T07:35:07;1.90;99.90
4433;DHT22;2229;48.708;9.706;2023-03-11T07:37:37;2.00;99.90
4433;DHT22;2229;48.708;9.706;2023-03-11T07:40:07;2.20;99.90
4433;DHT22;2229;48.708;9.706;2023-03-11T07:42:35;2.20;99.90
4433;DHT22;2229;48.708;9.706;2023-03-11T07:45:03;2.20;99.90
4433;DHT22;2229;48.708;9.706;2023-03-11T07:47:35;2.50;99.90
4433;DHT22;2229;48.708;9.706;2023-03-11T07:50:02;2.30;99.90
4433;DHT22;2229;48.708;9.706;2023-03-11T07:52:30;2.30;99.90
4433;DHT22;2229;48.708;9.706;2023-03-11T07:54:57;2.30;99.90
4433;DHT22;2229;48.708;9.706;2023-03-11T07:57:27;2.30;99.90
4433;DHT22;2229;48.708;9.706;2023-03-11T07:59:54;2.40;99.90
4433;DHT22;2229;48.708;9.706;2023-03-11T08:02:22;2.40;99.90
4433;DHT22;2229;48.708;9.706;2023-03-11T08:04:49;2.50;99.90
4433;DHT22;2229;48.708;9.706;2023-03-11T08:07:20;2.70;99.90
4433;DHT22;2229;48.708;9.706;2023-03-11T08:09:48;3.10;99.90
4433;DHT22;2229;48.708;9.706;2023-03-11T08:12:28;4.20;99.90
4433;DHT22;2229;48.708;9.706;2023-03-11T08:14:56;6.10;99.20
4433;DHT22;2229;48.708;9.706;2023-03-11T08:17:23;8.10;96.50
4433;DHT22;2229;48.708;9.706;2023-03-11T08:19:51;10.00;93.00
4433;DHT22;2229;48.708;9.706;2023-03-11T08:22:18;11.60;90.70
4433;DHT22;2229;48.708;9.706;2023-03-11T08:24:49;13.20;90.00
4433;DHT22;2229;48.708;9.706;2023-03-11T08:27:17;14.10;85.70
4433;DHT22;2229;48.708;9.706;2023-03-11T08:29:47;13.80;82.90
4433;DHT22;2229;48.708;9.706;2023-03-11T08:32:15;13.30;82.30
4433;DHT22;2229;48.708;9.706;2023-03-11T08:34:42;11.70;84.80
4433;DHT22;2229;48.708;9.706;2023-03-11T08:37:10;10.60;87.60
4433;DHT22;2229;48.708;9.706;2023-03-11T08:39:37;9.60;92.30
4433;DHT22;2229;48.708;9.706;2023-03-11T08:42:05;8.80;96.30
4433;DHT22;2229;48.708;9.706;2023-03-11T08:44:33;7.60;95.60
4433;DHT22;2229;48.708;9.706;2023-03-11T08:47:05;7.30;98.00
4433;DHT22;2229;48.708;9.706;2023-03-11T08:49:36;6.10;98.80
4433;DHT22;2229;48.708;9.706;2023-03-11T08:52:04;6.20;96.50
4433;DHT22;2229;48.708;9.706;2023-03-11T08:54:31;5.80;96.40
4433;DHT22;2229;48.708;9.706;2023-03-11T08:57:00;5.50;98.30
4433;DHT22;2229;48.708;9.706;2023-03-11T08:59:30;4.80;99.90
4433;DHT22;2229;48.708;9.706;2023-03-11T09:01:57;5.10;99.90
4433;DHT22;2229;48.708;9.706;2023-03-11T09:04:26;4.50;99.90
4433;DHT22;2229;48.708;9.706;2023-03-11T09:09:21;4.50;99.00
4433;DHT22;2229;48.708;9.706;2023-03-11T09:11:48;4.80;98.20
4433;DHT22;2229;48.708;9.706;2023-03-11T09:14:19;4.70;97.60
4433;DHT22;2229;48.708;9.706;2023-03-11T09:16:46;4.50;97.60
4433;DHT22;2229;48.708;9.706;2023-03-11T09:19:13;4.50;97.20
4433;DHT22;2229;48.708;9.706;2023-03-11T09:21:42;4.60;97.40
4433;DHT22;2229;48.708;9.706;2023-03-11T09:24:10;4.50;97.30
4433;DHT22;2229;48.708;9.706;2023-03-11T09:26:38;4.80;97.60
4433;DHT22;2229;48.708;9.706;2023-03-11T09:29:05;4.80;97.40
4433;DHT22;2229;48.708;9.706;2023-03-11T09:31:37;5.10;97.30
4433;DHT22;2229;48.708;9.706;2023-03-11T09:34:05;5.30;96.80
4433;DHT22;2229;48.708;9.706;2023-03-11T09:36:33;5.60;96.40
4433;DHT22;2229;48.708;9.706;2023-03-11T09:39:08;5.40;96.20
4433;DHT22;2229;48.708;9.706;2023-03-11T09:41:44;5.80;96.30
4433;DHT22;2229;48.708;9.706;2023-03-11T09:44:18;5.80;96.30
4433;DHT22;2229;48.708;9.706;2023-03-11T09:47:07;5.30;96.40
4433;DHT22;2229;48.708;9.706;2023-03-11T09:49:46;5.20;95.90
4433;DHT22;2229;48.708;9.706;2023-03-11T09:52:22;5.20;97.30
4433;DHT22;2229;48.708;9.706;2023-03-11T09:54:53;5.10;96.80
4433;DHT22;2229;48.708;9.706;2023-03-11T09:57:24;5.20;97.00
4433;DHT22;2229;48.708;9.706;2023-03-11T09:59:54;5.80;96.80
4433;DHT22;2229;48.708;9.706;2023-03-11T10:02:23;6.00;96.20
4433;DHT22;2229;48.708;9.706;2023-03-11T10:04:57;6.70;96.20
4433;DHT22;2229;48.708;9.706;2023-03-11T10:07:30;7.20;95.70
4433;DHT22;2229;48.708;9.706;2023-03-11T10:10:01;7.40;94.10
4433;DHT22;2229;48.708;9.706;2023-03-11T10:12:41;7.50;94.10
4433;DHT22;2229;48.708;9.706;2023-03-11T10:15:21;7.50;94.30
4433;DHT22;2229;48.708;9.706;2023-03-11T10:18:07;7.10;94.40
4433;DHT22;2229;48.708;9.706;2023-03-11T10:20:47;6.80;94.80
4433;DHT22;2229;48.708;9.706;2023-03-11T10:23:24;6.80;95.30
4433;DHT22;2229;48.708;9.706;2023-03-11T10:26:02;6.50;95.30
4433;DHT22;2229;48.708;9.706;2023-03-11T10:28:34;6.30;95.60
4433;DHT22;2229;48.708;9.706;2023-03-11T10:31:06;5.90;95.70
4433;DHT22;2229;48.708;9.706;2023-03-11T10:33:37;5.60;96.00
4433;DHT22;2229;48.708;9.706;2023-03-11T10:36:11;5.70;96.30
4433;DHT22;2229;48.708;9.706;2023-03-11T10:38:44;5.80;96.50
4433;DHT22;2229;48.708;9.706;2023-03-11T10:41:19;5.60;96.30
4433;DHT22;2229;48.708;9.706;2023-03-11T10:43:51;5.60;96.30
4433;DHT22;2229;48.708;9.706;2023-03-11T10:46:19;5.60;96.70
4433;DHT22;2229;48.708;9.706;2023-03-11T10:48:48;5.60;96.90
4433;DHT22;2229;48.708;9.706;2023-03-11T10:51:17;5.80;97.10
4433;DHT22;2229;48.708;9.706;2023-03-11T10:53:50;5.80;97.10
4433;DHT22;2229;48.708;9.706;2023-03-11T10:56:28;5.70;97.00
4433;DHT22;2229;48.708;9.706;2023-03-11T10:58:56;5.80;97.60
4433;DHT22;2229;48.708;9.706;2023-03-11T11:01:25;5.90;97.60
4433;DHT22;2229;48.708;9.706;2023-03-11T11:04:00;5.90;97.10
4433;DHT22;2229;48.708;9.706;2023-03-11T11:06:30;5.90;97.00
4433;DHT22;2229;48.708;9.706;2023-03-11T11:09:15;5.70;97.00
4433;DHT22;2229;48.708;9.706;2023-03-11T11:12:00;5.80;97.40
4433;DHT22;2229;48.708;9.706;2023-03-11T11:14:44;5.90;97.50
4433;DHT22;2229;48.708;9.706;2023-03-11T11:17:18;6.30;97.80
4433;DHT22;2229;48.708;9.706;2023-03-11T11:19:48;6.80;86.30
4433;DHT22;2229;48.708;9.706;2023-03-11T11:22:17;7.50;83.00
4433;DHT22;2229;48.708;9.706;2023-03-11T11:24:48;7.60;81.70
4433;DHT22;2229;48.708;9.706;2023-03-11T11:27:20;7.50;81.10
4433;DHT22;2229;48.708;9.706;2023-03-11T11:30:11;7.80;81.50
4433;DHT22;2229;48.708;9.706;2023-03-11T11:32:39;7.50;79.80
4433;DHT22;2229;48.708;9.706;2023-03-11T11:35:10;7.30;81.20
4433;DHT22;2229;48.708;9.706;2023-03-11T11:37:41;7.30;80.60
4433;DHT22;2229;48.708;9.706;2023-03-11T11:40:25;7.30;80.20
4433;DHT22;2229;48.708;9.706;2023-03-11T11:43:05;7.20;78.70
4433;DHT22;2229;48.708;9.706;2023-03-11T11:45:36;7.10;80.70
4433;DHT22;2229;48.708;9.706;2023-03-11T11:48:10;7.20;81.30
4433;DHT22;2229;48.708;9.706;2023-03-11T11:50:42;7.20;81.30
4433;DHT22;2229;48.708;9.706;2023-03-11T11:53:21;7.30;82.00
4433;DHT22;2229;48.708;9.706;2023-03-11T11:55:55;7.20;81.50
4433;DHT22;2229;48.708;9.706;2023-03-11T11:58:25;7.40;79.60
4433;DHT22;2229;48.708;9.706;2023-03-11T12:01:05;7.50;80.70
4433;DHT22;2229;48.708;9.706;2023-03-11T12:04:02;7.00;79.20
4433;DHT22;2229;48.708;9.706;2023-03-11T12:06:36;7.20;80.90
4433;DHT22;2229;48.708;9.706;2023-03-11T12:09:15;7.20;81.90
4433;DHT22;2229;48.708;9.706;2023-03-11T12:11:53;7.20;81.70
4433;DHT22;2229;48.708;9.706;2023-03-11T12:14:29;7.40;82.40
4433;DHT22;2229;48.708;9.706;2023-03-11T12:16:59;7.40;82.40
4433;DHT22;2229;48.708;9.706;2023-03-11T12:19:36;7.50;81.30
4433;DHT22;2229;48.708;9.706;2023-03-11T12:22:44;7.50;80.30
4433;DHT22;2229;48.708;9.706;2023-03-11T12:25:27;7.40;79.40
4433;DHT22;2229;48.708;9.706;2023-03-11T12:28:01;7.60;82.60
4433;DHT22;2229;48.708;9.706;2023-03-11T12:30:40;7.90;82.60
4433;DHT22;2229;48.708;9.706;2023-03-11T12:33:14;8.30;84.80
4433;DHT22;2229;48.708;9.706;2023-03-11T12:35:48;8.30;85.80
4433;DHT22;2229;48.708;9.706;2023-03-11T12:38:20;8.40;85.20
4433;DHT22;2229;48.708;9.706;2023-03-11T12:40:58;8.40;84.20
4433;DHT22;2229;48.708;9.706;2023-03-11T12:43:27;8.10;84.30
4433;DHT22;2229;48.708;9.706;2023-03-11T12:46:16;8.30;85.10
4433;DHT22;2229;48.708;9.706;2023-03-11T12:48:47;8.40;84.00
4433;DHT22;2229;48.708;9.706;2023-03-11T12:51:37;8.50;88.40
4433;DHT22;2229;48.708;9.706;2023-03-11T12:54:27;8.70;89.00
4433;DHT22;2229;48.708;9.706;2023-03-11T12:56:55;8.90;92.00
4433;DHT22;2229;48.708;9.706;2023-03-11T13:02:55;8.90;93.10
4433;DHT22;2229;48.708;9.706;2023-03-11T13:05:44;9.00;87.50
4433;DHT22;2229;48.708;9.706;2023-03-11T13:08:24;8.80;91.40
4433;DHT22;2229;48.708;9.706;2023-03-11T13:10:53;8.80;91.20
4433;DHT22;2229;48.708;9.706;2023-03-11T13:13:37;8.90;94.90
4433;DHT22;2229;48.708;9.706;2023-03-11T13:16:35;8.90;94.00
4433;DHT22;2229;48.708;9.706;2023-03-11T13:19:33;8.80;94.10
4433;DHT22;2229;48.708;9.706;2023-03-11T13:22:02;8.60;91.10
4433;DHT22;2229;48.708;9.706;2023-03-11T13:24:49;8.60;90.30
4433;DHT22;2229;48.708;9.706;2023-03-11T13:27:31;8.50;88.90
4433;DHT22;2229;48.708;9.706;2023-03-11T13:30:08;8.80;88.10
4433;DHT22;2229;48.708;9.706;2023-03-11T13:32:56;8.50;89.00
4433;DHT22;2229;48.708;9.706;2023-03-11T13:35:39;8.90;89.90
4433;DHT22;2229;48.708;9.706;2023-03-11T13:38:36;8.80;89.30
4433;DHT22;2229;48.708;9.706;2023-03-11T13:41:13;8.80;89.30
4433;DHT22;2229;48.708;9.706;2023-03-11T13:43:44;8.90;88.60
4433;DHT22;2229;48.708;9.706;2023-03-11T13:46:13;9.00;87.30
4433;DHT22;2229;48.708;9.706;2023-03-11T13:48:46;9.20;88.00
4433;DHT22;2229;48.708;9.706;2023-03-11T13:51:21;8.90;88.50
4433;DHT22;2229;48.708;9.706;2023-03-11T13:53:52;8.90;87.80
4433;DHT22;2229;48.708;9.706;2023-03-11T13:56:25;8.90;86.80
4433;DHT22;2229;48.708;9.706;2023-03-11T13:58:53;8.70;86.30
4433;DHT22;2229;48.708;9.706;2023-03-11T14:01:20;8.50;86.20
4433;DHT22;2229;48.708;9.706;2023-03-11T14:03:48;8.30;86.20
4433;DHT22;2229;48.708;9.706;2023-03-11T14:06:18;8.20;87.30
4433;DHT22;2229;48.708;9.706;2023-03-11T14:08:53;8.20;88.90
4433;DHT22;2229;48.708;9.706;2023-03-11T14:11:25;8.40;88.00
4433;DHT22;2229;48.708;9.706;2023-03-11T14:13:53;8.30;90.10
4433;DHT22;2229;48.708;9.706;2023-03-11T14:16:25;8.20;89.30
4433;DHT22;2229;48.708;9.706;2023-03-11T14:19:03;8.30;90.00
4433;DHT22;2229;48.708;9.706;2023-03-11T14:21:34;9.10;90.70
4433;DHT22;2229;48.708;9.706;2023-03-11T14:24:03;8.70;90.70
4433;DHT22;2229;48.708;9.706;2023-03-11T14:26:33;9.00;90.80
4433;DHT22;2229;48.708;9.706;2023-03-11T14:29:07;9.00;91.70
4433;DHT22;2229;48.708;9.706;2023-03-11T14:31:38;9.10;93.10
4433;DHT22;2229;48.708;9.706;2023-03-11T14:34:13;8.80;91.30
4433;DHT22;2229;48.708;9.706;2023-03-11T14:36:45;9.20;81.50
4433;DHT22;2229;48.708;9.706;2023-03-11T14:39:29;9.20;72.50
4433;DHT22;2229;48.708;9.706;2023-03-11T14:42:03;9.30;71.70
4433;DHT22;2229;48.708;9.706;2023-03-11T14:44:33;9.40;70.70
4433;DHT22;2229;48.708;9.706;2023-03-11T14:47:07;9.40;68.50
4433;DHT22;2229;48.708;9.706;2023-03-11T14:49:36;9.50;67.70
4433;DHT22;2229;48.708;9.706;2023-03-11T14:52:12;9.60;67.30
4433;DHT22;2229;48.708;9.706;2023-03-11T14:54:41;9.60;67.50
4433;DHT22;2229;48.708;9.706;2023-03-11T14:57:17;9.70;66.90
4433;DHT22;2229;48.708;9.706;2023-03-11T14:59:47;9.70;65.90
4433;DHT22;2229;48.708;9.706;2023-03-11T15:02:42;9.50;65.80
4433;DHT22;2229;48.708;9.706;2023-03-11T15:05:17;9.80;65.30
4433;DHT22;2229;48.708;9.706;2023-03-11T15:07:48;9.60;66.30
4433;DHT22;2229;48.708;9.706;2023-03-11T15:10:17;9.50;66.70
4433;DHT22;2229;48.708;9.706;2023-03-11T15:12:44;9.60;67.30
4433;DHT22;2229;48.708;9.706;2023-03-11T15:15:28;9.10;67.30
4433;DHT22;2229;48.708;9.706;2023-03-11T15:17:56;9.10;68.30
4433;DHT22;2229;48.708;9.706;2023-03-11T15:20:27;8.90;68.20
4433;DHT22;2229;48.708;9.706;2023-03-11T15:22:59;8.70;68.50
4433;DHT22;2229;48.708;9.706;2023-03-11T15:25:28;8.60;68.50
4433;DHT22;2229;48.708;9.706;2023-03-11T15:27:56;8.40;68.50
4433;DHT22;2229;48.708;9.706;2023-03-11T15:30:25;9.10;69.30
4433;DHT22;2229;48.708;9.706;2023-03-11T15:32:53;8.50;68.80
4433;DHT22;2229;48.708;9.706;2023-03-11T15:35:21;8.30;68.40
4433;DHT22;2229;48.708;9.706;2023-03-11T15:37:51;8.30;68.50
4433;DHT22;2229;48.708;9.706;2023-03-11T15:40:38;8.30;69.00
4433;DHT22;2229;48.708;9.706;2023-03-11T15:43:19;8.20;69.00
4433;DHT22;2229;48.708;9.706;2023-03-11T15:45:56;8.30;68.30
4433;DHT22;2229;48.708;9.706;2023-03-11T15:48:27;8.10;69.70
4433;DHT22;2229;48.708;9.706;2023-03-11T15:50:57;8.10;69.70
4433;DHT22;2229;48.708;9.706;2023-03-11T15:53:26;8.10;70.20
4433;DHT22;2229;48.708;9.706;2023-03-11T15:55:57;8.10;70.00
4433;DHT22;2229;48.708;9.706;2023-03-11T15:58:24;8.40;69.60
4433;DHT22;2229;48.708;9.706;2023-03-11T16:00:54;8.00;69.50
4433;DHT22;2229;48.708;9.706;2023-03-11T16:03:23;8.10;69.90
4433;DHT22;2229;48.708;9.706;2023-03-11T16:05:51;8.20;70.60
4433;DHT22;2229;48.708;9.706;2023-03-11T16:08:19;7.80;69.60
4433;DHT22;2229;48.708;9.706;2023-03-11T16:10:46;7.90;70.20
4433;DHT22;2229;48.708;9.706;2023-03-11T16:13:14;7.70;69.90
4433;DHT22;2229;48.708;9.706;2023-03-11T16:15:42;7.70;70.30
4433;DHT22;2229;48.708;9.706;2023-03-11T16:18:12;7.90;70.80
4433;DHT22;2229;48.708;9.706;2023-03-11T16:20:41;7.70;70.60
4433;DHT22;2229;48.708;9.706;2023-03-11T16:23:13;7.50;70.80
4433;DHT22;2229;48.708;9.706;2023-03-11T16:25:42;7.50;71.10
4433;DHT22;2229;48.708;9.706;2023-03-11T16:28:12;7.40;71.10
4433;DHT22;2229;48.708;9.706;2023-03-11T16:30:42;7.70;71.60
4433;DHT22;2229;48.708;9.706;2023-03-11T16:33:09;7.40;71.80
4433;DHT22;2229;48.708;9.706;2023-03-11T16:35:37;7.40;72.10
4433;DHT22;2229;48.708;9.706;2023-03-11T16:38:06;7.20;71.40
4433;DHT22;2229;48.708;9.706;2023-03-11T16:40:34;7.30;71.70
4433;DHT22;2229;48.708;9.706;2023-03-11T16:43:02;7.20;72.00
4433;DHT22;2229;48.708;9.706;2023-03-11T16:45:30;7.10;72.20
4433;DHT22;2229;48.708;9.706;2023-03-11T16:47:59;6.80;71.20
4433;DHT22;2229;48.708;9.706;2023-03-11T16:50:27;6.90;71.50
4433;DHT22;2229;48.708;9.706;2023-03-11T16:52:55;6.70;71.30